Abernathy, Texas
Current Conditions -  °F | °C
As of 8:53 PM on Saturday 22 Nov 2014 (Local Time) from KLBB Reporting Station
Haze Haze  
Wind Chill: 51°   Ceiling: Unl
Heat Index: 51°   Visibility: 5mi
Dew Point: 49°   Wind: 12mph
Humidity: 92%   Direction: 170°S
Pressure: 29.76"   Gusts: NA
Location:  33.83°N, 101.84°W
Report Text: KLBB 230253Z 17010KT 5SM BR CLR 11/09 A2976 RMK AO2 SLP059 T01060094 53003
Loading
Personal Weather Stations






























Interactive Weather Map New forecast layout! Learn more

10-Day Weather Forecast

Advertisements
Track Severe Weather on mobile